Time;durP1;ratioP1;P1;durP2;ratioP2;P2;SDS_P1;SDS_P2;PMS_P1;PMS_P2;Temp;Humidity;BMP_temperature;BMP_pressure;BME280_temperature;BME280_humidity;BME280_pressure;Samples;Min_cycle;Max_cycle;Signal;HPM_P1;HPM_P2
2022/06/16 00:01:57;;;;;;;11.52;6.03;;;;;;;16.91;57.95;101804.53;5025738;28;20104;-67
2022/06/16 00:04:23;;;;;;;10.57;6.10;;;;;;;16.91;58.37;101798.13;5026029;28;20033;-67
2022/06/16 00:06:49;;;;;;;11.23;6.35;;;;;;;16.77;58.73;101798.44;5027034;28;20032;-67
2022/06/16 00:09:14;;;;;;;10.77;5.95;;;;;;;16.76;58.35;101801.47;5025092;28;20034;-66
2022/06/16 00:11:39;;;;;;;10.85;5.80;;;;;;;16.81;59.20;101802.41;5026162;28;20433;-67
2022/06/16 00:14:05;;;;;;;10.13;5.90;;;;;;;16.77;58.33;101808.69;5026867;28;20095;-67
2022/06/16 00:16:30;;;;;;;11.00;5.88;;;;;;;16.70;59.08;101808.81;5026119;28;20545;-67
2022/06/16 00:18:55;;;;;;;12.20;6.28;;;;;;;16.65;58.69;101803.19;5023144;28;20017;-67
2022/06/16 00:21:21;;;;;;;13.60;6.38;;;;;;;16.65;59.66;101794.00;5026598;28;20033;-67
2022/06/16 00:23:47;;;;;;;10.48;6.15;;;;;;;16.65;59.56;101800.41;5025881;28;20033;-67
2022/06/16 00:26:17;;;;;;;9.88;6.30;;;;;;;16.64;59.12;101806.22;5024799;28;20033;-66
2022/06/16 00:28:43;;;;;;;11.02;6.43;;;;;;;16.46;60.70;101805.28;5026142;28;20488;-67
2022/06/16 00:31:10;;;;;;;11.23;6.35;;;;;;;16.43;60.27;101819.66;5026841;28;20152;-67
2022/06/16 00:33:36;;;;;;;8.98;5.97;;;;;;;16.43;60.50;101819.66;5026867;28;20386;-67
2022/06/16 00:36:01;;;;;;;10.98;6.70;;;;;;;16.45;59.84;101823.03;5026199;28;20021;-67
2022/06/16 00:38:27;;;;;;;11.43;6.55;;;;;;;16.32;60.20;101817.75;5024802;28;20043;-67
2022/06/16 00:40:52;;;;;;;10.88;6.35;;;;;;;16.31;60.99;101821.63;5024522;28;20041;-67
2022/06/16 00:43:18;;;;;;;13.63;6.45;;;;;;;16.25;61.00;101812.34;5026320;28;20477;-67
2022/06/16 00:45:56;;;;;;;10.65;6.38;;;;;;;16.20;61.15;101815.03;5026555;28;20140;-67
2022/06/16 00:48:43;;;;;;;12.07;6.50;;;;;;;16.27;60.68;101825.97;5010333;28;20459;-67
2022/06/16 00:51:17;;;;;;;10.68;6.65;;;;;;;16.29;60.46;101830.19;5008976;28;20108;-67
2022/06/16 00:53:44;;;;;;;12.85;6.72;;;;;;;16.12;61.86;101817.31;5026307;28;20397;-67
2022/06/16 00:56:15;;;;;;;10.27;7.30;;;;;;;16.12;61.51;101832.03;5026396;28;20029;-67
2022/06/16 00:58:43;;;;;;;11.13;6.47;;;;;;;16.14;61.04;101820.72;5025477;28;20049;-67
2022/06/16 01:01:08;;;;;;;;;;;;;;;16.34;60.34;101818.38;5026517;28;20025;-67
2022/06/16 01:06:22;;;;;;;11.50;6.88;;;;;;;15.90;62.38;101826.28;5023639;28;20126;-67
2022/06/16 01:08:51;;;;;;;10.05;6.57;;;;;;;15.87;63.02;101820.41;5025943;28;20021;-67
2022/06/16 01:14:29;;;;;;;13.45;7.47;;;;;;;15.78;62.44;101836.53;5019972;28;20115;-68
2022/06/16 01:17:02;;;;;;;11.48;7.38;;;;;;;15.74;62.46;101838.09;5012411;28;20026;-67
2022/06/16 01:20:01;;;;;;;10.82;7.05;;;;;;;15.71;62.50;101847.75;5015323;28;20434;-67
2022/06/16 01:23:03;;;;;;;11.23;7.30;;;;;;;15.64;62.69;101843.38;5016923;28;20032;-67
2022/06/16 01:26:00;;;;;;;12.18;7.32;;;;;;;15.67;62.95;101845.69;5014638;28;20048;-67
2022/06/16 01:28:29;;;;;;;11.25;7.30;;;;;;;15.63;65.07;101858.28;5009066;28;20030;-67
2022/06/16 01:31:02;;;;;;;10.52;7.95;;;;;;;15.52;66.43;101858.03;5020037;28;20394;-67
2022/06/16 01:34:00;;;;;;;12.25;7.78;;;;;;;15.53;66.27;101856.94;5009122;28;20402;-67
2022/06/16 01:36:47;;;;;;;14.30;7.90;;;;;;;15.49;66.31;101858.50;5011749;28;20063;-67
2022/06/16 01:39:19;;;;;;;12.00;7.63;;;;;;;15.38;67.28;101873.19;5009870;28;20118;-67
2022/06/16 01:42:04;;;;;;;11.93;7.90;;;;;;;15.36;66.67;101861.50;5014456;28;20033;-67
2022/06/16 01:44:39;;;;;;;10.65;7.22;;;;;;;15.28;67.08;101868.22;5011733;28;20029;-68
2022/06/16 01:47:15;;;;;;;11.05;7.72;;;;;;;15.26;67.80;101864.84;5017561;28;20025;-68
2022/06/16 01:49:52;;;;;;;10.73;7.40;;;;;;;15.17;68.61;101866.28;5012553;28;20025;-67
2022/06/16 01:52:23;;;;;;;10.35;7.30;;;;;;;15.09;68.51;101861.06;5022320;28;20037;-67
2022/06/16 01:55:14;;;;;;;10.25;7.97;;;;;;;15.31;66.64;101858.63;5011096;28;20045;-67
2022/06/16 01:57:49;;;;;;;15.45;8.60;;;;;;;15.03;65.26;101864.78;5010231;28;20033;-67
2022/06/16 02:00:18;;;;;;;13.80;8.05;;;;;;;14.92;67.91;101858.13;5012284;28;20112;-67
2022/06/16 02:02:45;;;;;;;12.68;7.90;;;;;;;14.88;67.24;101853.31;5020672;28;20398;-68
2022/06/16 02:05:16;;;;;;;12.20;7.95;;;;;;;14.80;68.11;101854.50;5019594;28;20033;-67
2022/06/16 02:08:08;;;;;;;13.30;8.38;;;;;;;14.75;69.74;101851.56;5012439;28;20029;-67
2022/06/16 02:10:39;;;;;;;12.35;8.30;;;;;;;14.58;70.01;101850.53;5014354;28;20037;-67
2022/06/16 02:13:08;;;;;;;12.00;8.02;;;;;;;14.49;69.85;101848.06;5014020;28;20086;-67
2022/06/16 02:15:45;;;;;;;13.85;8.80;;;;;;;14.51;68.64;101850.63;5023078;28;20044;-68
2022/06/16 02:18:16;;;;;;;12.05;8.63;;;;;;;14.38;70.29;101861.78;5019291;28;20036;-67
2022/06/16 02:21:05;;;;;;;11.52;7.82;;;;;;;14.34;71.36;101864.16;5019115;28;20037;-67
2022/06/16 02:23:30;;;;;;;12.20;8.30;;;;;;;14.23;72.35;101859.41;5017617;28;20026;-67
2022/06/16 02:25:58;;;;;;;13.10;8.15;;;;;;;14.16;72.38;101865.03;5019763;28;20609;-67
2022/06/16 02:28:24;;;;;;;11.90;8.32;;;;;;;14.12;72.27;101866.56;5016762;28;20030;-68
2022/06/16 02:31:25;;;;;;;12.98;8.63;;;;;;;14.09;72.44;101868.94;5014883;28;20041;-67
2022/06/16 02:33:59;;;;;;;15.77;8.90;;;;;;;14.03;72.99;101877.06;5004165;28;20046;-68
2022/06/16 02:36:24;;;;;;;12.65;9.15;;;;;;;13.94;72.64;101888.66;5019954;28;20022;-68
2022/06/16 02:39:09;;;;;;;14.60;8.80;;;;;;;13.99;72.37;101897.94;5013934;28;20179;-67
2022/06/16 02:41:56;;;;;;;14.57;9.30;;;;;;;13.90;73.04;101913.13;5016576;28;20064;-67
2022/06/16 02:44:42;;;;;;;13.68;8.38;;;;;;;13.87;72.58;101901.66;5015206;28;20038;-67
2022/06/16 02:47:44;;;;;;;13.65;9.85;;;;;;;13.82;73.50;101898.75;5009219;28;20740;-67
2022/06/16 02:50:15;;;;;;;13.25;9.30;;;;;;;13.74;73.58;101905.41;5008626;28;20064;-68
2022/06/16 02:52:48;;;;;;;13.32;9.35;;;;;;;13.70;74.55;101904.16;5020100;28;20087;-67
2022/06/16 02:55:35;;;;;;;16.70;9.25;;;;;;;13.69;73.25;101908.00;5007119;28;20030;-67
2022/06/16 02:58:02;;;;;;;12.05;8.82;;;;;;;13.61;74.05;101913.78;5008352;28;20033;-67
2022/06/16 03:00:41;;;;;;;15.25;9.07;;;;;;;13.57;74.52;101913.38;5021420;28;20084;-67
2022/06/16 03:03:22;;;;;;;13.85;8.77;;;;;;;13.52;74.44;101912.38;5018882;28;20040;-67
2022/06/16 03:05:52;;;;;;;15.50;8.98;;;;;;;13.41;75.45;101922.22;5018143;28;20072;-67
2022/06/16 03:08:19;;;;;;;13.27;8.60;;;;;;;13.39;75.34;101919.69;5016134;28;20033;-68
2022/06/16 03:10:53;;;;;;;13.15;8.82;;;;;;;13.32;74.65;101913.34;5019668;28;20037;-67
2022/06/16 03:13:24;;;;;;;13.93;8.88;;;;;;;13.23;75.81;101920.25;5020769;28;20048;-67
2022/06/16 03:15:51;;;;;;;15.70;9.35;;;;;;;13.15;76.27;101912.19;5016674;28;20159;-67
2022/06/16 03:18:18;;;;;;;15.27;8.32;;;;;;;13.04;76.55;101919.25;5022005;28;20041;-67
2022/06/16 03:20:43;;;;;;;11.50;8.57;;;;;;;12.96;77.63;101914.81;5023886;28;20029;-67
2022/06/16 03:23:08;;;;;;;14.45;8.90;;;;;;;12.88;77.93;101917.84;5024154;28;20418;-67
2022/06/16 03:25:34;;;;;;;14.15;8.95;;;;;;;12.80;78.49;101918.09;5023760;28;20040;-67
2022/06/16 03:27:59;;;;;;;12.68;8.70;;;;;;;12.75;78.98;101917.06;5025584;28;20021;-67
2022/06/16 03:30:25;;;;;;;13.13;9.57;;;;;;;12.71;78.57;101911.13;5023278;28;20075;-67
2022/06/16 03:32:50;;;;;;;14.18;9.55;;;;;;;12.68;78.73;101915.19;5012315;28;20026;-67
2022/06/16 03:35:16;;;;;;;13.13;9.23;;;;;;;12.67;79.15;101913.50;5008266;28;20022;-67
2022/06/16 03:37:41;;;;;;;11.68;8.75;;;;;;;12.64;79.69;101924.94;5027843;28;20161;-68
2022/06/16 03:40:08;;;;;;;14.00;9.13;;;;;;;12.63;79.37;101930.69;5025293;28;20018;-67
2022/06/16 03:42:33;;;;;;;13.35;9.40;;;;;;;12.67;79.60;101942.94;5026938;28;20040;-67
2022/06/16 03:44:59;;;;;;;12.38;9.52;;;;;;;12.64;79.98;101946.16;5027366;28;20034;-67
2022/06/16 03:47:24;;;;;;;12.90;9.48;;;;;;;12.67;79.68;101949.34;5027096;28;20049;-67
2022/06/16 03:49:49;;;;;;;16.05;10.20;;;;;;;12.68;79.32;101953.78;5026801;28;20025;-67
2022/06/16 03:52:15;;;;;;;17.20;10.05;;;;;;;12.69;79.23;101957.38;5027312;28;20032;-67
2022/06/16 03:54:40;;;;;;;12.65;9.85;;;;;;;12.68;78.72;101963.97;5026179;28;20035;-67
2022/06/16 03:57:06;;;;;;;14.45;10.40;;;;;;;12.65;79.07;101967.13;5025960;28;20033;-66
2022/06/16 03:59:31;;;;;;;15.82;9.48;;;;;;;12.66;79.62;101960.56;5027438;28;20132;-67
2022/06/16 04:01:56;;;;;;;13.38;10.13;;;;;;;12.71;79.33;101964.34;5024600;28;20048;-67
2022/06/16 04:04:22;;;;;;;16.70;10.32;;;;;;;12.65;79.57;101958.88;5025830;28;20053;-67
2022/06/16 04:06:48;;;;;;;16.17;10.77;;;;;;;12.64;79.67;101968.22;5027479;28;20475;-67
2022/06/16 04:09:13;;;;;;;16.80;11.05;;;;;;;12.65;79.44;101959.72;5025839;28;20437;-67
2022/06/16 04:11:38;;;;;;;15.57;10.75;;;;;;;12.69;79.31;101965.66;5023615;28;20021;-67
2022/06/16 04:14:09;;;;;;;13.60;10.25;;;;;;;12.70;79.05;101972.84;5025150;28;20553;-67
2022/06/16 04:16:46;;;;;;;16.98;10.63;;;;;;;12.70;79.22;101967.34;5027263;28;20025;-67
2022/06/16 04:19:14;;;;;;;15.85;11.32;;;;;;;12.76;80.64;101969.22;5026861;28;20087;-67
2022/06/16 04:21:41;;;;;;;16.52;11.00;;;;;;;12.84;79.15;101976.41;5025540;28;20048;-67
2022/06/16 04:24:08;;;;;;;14.88;11.00;;;;;;;12.84;79.38;101959.88;5024671;28;20025;-67
2022/06/16 04:26:33;;;;;;;15.80;11.38;;;;;;;12.97;78.71;101971.66;5026130;28;20472;-67
2022/06/16 04:28:59;;;;;;;15.30;10.65;;;;;;;13.11;75.94;101972.44;5026430;28;20100;-67
2022/06/16 04:31:25;;;;;;;16.38;11.23;;;;;;;13.14;77.61;101971.19;5022735;28;20044;-67
2022/06/16 04:33:50;;;;;;;16.67;11.13;;;;;;;13.13;77.93;101980.53;5026818;28;20025;-67
2022/06/16 04:36:16;;;;;;;13.45;10.02;;;;;;;13.23;77.54;101973.50;5026288;28;20029;-67
2022/06/16 04:38:42;;;;;;;14.32;10.52;;;;;;;13.25;77.29;101984.31;5024732;28;20040;-67
2022/06/16 04:41:08;;;;;;;17.92;11.27;;;;;;;13.29;76.70;101981.97;5023363;28;20021;-67
2022/06/16 04:43:34;;;;;;;14.38;11.05;;;;;;;13.33;75.27;101983.19;5026557;28;20371;-67
2022/06/16 04:46:00;;;;;;;19.17;11.35;;;;;;;13.32;76.80;101990.63;5025608;28;20040;-67
2022/06/16 04:48:26;;;;;;;16.67;11.50;;;;;;;13.38;76.67;101991.63;5025875;28;20049;-67
2022/06/16 04:50:52;;;;;;;16.63;12.35;;;;;;;13.36;77.21;101991.03;5024553;28;20520;-67
2022/06/16 04:53:17;;;;;;;18.90;10.95;;;;;;;13.47;72.60;101988.41;5025159;28;20140;-67
2022/06/16 04:55:42;;;;;;;17.10;11.93;;;;;;;13.72;69.83;101996.72;5025119;28;20034;-67
2022/06/16 04:58:08;;;;;;;15.15;11.52;;;;;;;13.71;71.08;102005.25;5023521;28;20056;-67
2022/06/16 05:00:34;;;;;;;15.75;11.18;;;;;;;13.68;70.51;102006.50;5024356;28;20366;-67
2022/06/16 05:03:00;;;;;;;15.20;11.20;;;;;;;13.74;72.01;102004.81;5023367;28;20029;-67
2022/06/16 05:05:26;;;;;;;19.27;12.05;;;;;;;13.72;73.83;102004.16;5024460;28;20087;-67
2022/06/16 05:07:51;;;;;;;17.98;12.20;;;;;;;13.79;72.35;102015.16;5022286;28;20116;-66
2022/06/16 05:10:17;;;;;;;16.20;11.93;;;;;;;13.82;72.83;102011.94;5024479;28;20509;-67
2022/06/16 05:12:42;;;;;;;16.23;11.65;;;;;;;13.89;70.65;102008.09;5026041;28;20108;-67
2022/06/16 05:15:08;;;;;;;17.23;11.52;;;;;;;13.93;70.50;102023.13;5025572;28;20756;-67
2022/06/16 05:17:34;;;;;;;17.90;11.65;;;;;;;13.92;72.01;102026.97;5023683;28;20034;-67
2022/06/16 05:19:59;;;;;;;14.82;11.55;;;;;;;13.97;71.69;102032.66;5025882;28;20437;-67
2022/06/16 05:22:24;;;;;;;15.65;11.25;;;;;;;13.99;71.91;102033.28;5025987;28;20029;-67
2022/06/16 05:24:50;;;;;;;15.05;11.65;;;;;;;14.12;69.86;102037.84;5024148;28;20114;-67
2022/06/16 05:27:17;;;;;;;15.55;10.75;;;;;;;14.15;69.60;102034.66;5024216;28;20037;-67
2022/06/16 05:29:42;;;;;;;16.98;10.85;;;;;;;14.21;68.73;102033.75;5024816;28;20049;-67
2022/06/16 05:32:09;;;;;;;17.90;11.35;;;;;;;14.22;70.14;102045.63;5023622;28;20121;-67
2022/06/16 05:34:36;;;;;;;16.00;10.73;;;;;;;14.26;69.79;102044.97;5023876;28;20030;-67
2022/06/16 05:37:01;;;;;;;15.75;10.93;;;;;;;14.32;68.48;102045.13;5023728;28;20027;-67
2022/06/16 05:39:27;;;;;;;17.70;10.60;;;;;;;14.40;68.95;102042.94;5024098;28;20481;-67
2022/06/16 05:41:52;;;;;;;17.17;10.35;;;;;;;14.49;68.25;102055.41;5024442;28;20117;-68
2022/06/16 05:44:17;;;;;;;15.32;9.80;;;;;;;14.63;67.62;102052.50;5024488;28;20065;-67
2022/06/16 05:46:42;;;;;;;15.00;9.88;;;;;;;14.79;66.72;102058.28;5023411;28;20039;-67
2022/06/16 05:49:11;;;;;;;14.07;9.68;;;;;;;14.91;64.08;102052.84;5022191;28;20040;-67
2022/06/16 05:51:37;;;;;;;14.80;9.75;;;;;;;14.96;65.15;102055.78;5024265;28;20026;-67
2022/06/16 05:54:03;;;;;;;12.32;9.30;;;;;;;15.00;63.24;102048.72;5012332;28;20072;-68
2022/06/16 05:56:28;;;;;;;14.95;9.75;;;;;;;15.02;64.86;102052.06;5024949;28;20392;-67
2022/06/16 05:58:54;;;;;;;14.48;9.95;;;;;;;15.02;65.86;102052.06;5024323;28;20112;-67
2022/06/16 06:01:19;;;;;;;14.73;9.45;;;;;;;15.01;64.74;102055.94;5023787;28;20043;-67
2022/06/16 06:03:44;;;;;;;14.35;9.32;;;;;;;15.10;63.14;102058.38;5023558;28;20087;-67
2022/06/16 06:06:10;;;;;;;16.10;9.05;;;;;;;15.26;61.68;102047.53;5022802;28;20381;-67
2022/06/16 06:17:05;;;;;;;12.95;7.72;;;;;;;15.61;60.95;102070.91;5021977;28;20040;-67
2022/06/16 06:19:31;;;;;;;11.75;7.45;;;;;;;15.67;59.34;102070.03;5024823;28;20021;-67
2022/06/16 06:21:58;;;;;;;13.95;9.02;;;;;;;15.59;60.20;102071.16;5025126;28;20053;-67
2022/06/16 06:24:25;;;;;;;15.02;8.57;;;;;;;15.52;61.11;102067.63;5022701;28;20049;-67
2022/06/16 06:26:52;;;;;;;10.98;8.10;;;;;;;15.57;59.29;102062.25;5022884;28;21026;-67
2022/06/16 06:29:17;;;;;;;11.07;7.53;;;;;;;15.54;59.82;102065.47;5023182;28;20037;-68
2022/06/16 06:31:43;;;;;;;12.35;7.63;;;;;;;15.67;58.37;102078.31;5022510;28;20029;-68
2022/06/16 06:34:08;;;;;;;11.57;7.20;;;;;;;15.62;60.07;102083.69;5020502;28;20393;-68
2022/06/16 06:36:33;;;;;;;12.13;6.55;;;;;;;15.76;56.97;102074.13;5023643;28;20125;-68
2022/06/16 06:38:58;;;;;;;9.60;6.05;;;;;;;15.80;57.41;102080.88;5023282;28;20474;-67
2022/06/16 06:41:24;;;;;;;13.18;5.95;;;;;;;15.81;60.00;102085.34;5019716;28;20034;-67
2022/06/16 06:43:49;;;;;;;9.25;5.50;;;;;;;15.88;55.70;102083.34;5021365;28;20017;-67
2022/06/16 06:46:14;;;;;;;11.48;5.80;;;;;;;15.95;58.23;102088.78;5025679;28;20470;-67
2022/06/16 06:48:39;;;;;;;8.90;4.78;;;;;;;15.99;58.20;102084.44;5027389;28;20113;-67
2022/06/16 06:51:05;;;;;;;12.05;5.22;;;;;;;16.05;55.05;102087.09;5024435;28;20044;-67
2022/06/16 06:53:30;;;;;;;9.75;4.43;;;;;;;16.12;59.39;102091.69;5025006;28;20048;-67
2022/06/16 06:55:55;;;;;;;9.43;4.63;;;;;;;16.38;53.80;102088.50;5027770;28;20022;-67
2022/06/16 06:58:22;;;;;;;8.05;4.30;;;;;;;16.29;54.89;102098.25;5028843;28;20079;-67
2022/06/16 07:00:53;;;;;;;8.77;4.63;;;;;;;16.35;56.01;102105.63;5029186;28;20453;-67
2022/06/16 07:03:20;;;;;;;9.77;4.78;;;;;;;16.46;55.08;102102.00;5023444;28;20370;-67
2022/06/16 07:05:46;;;;;;;9.00;4.38;;;;;;;16.49;57.63;102107.09;5028258;28;20438;-67
2022/06/16 07:08:12;;;;;;;12.18;5.18;;;;;;;16.59;56.09;102107.34;5027083;28;20039;-67
2022/06/16 07:10:38;;;;;;;10.50;4.68;;;;;;;16.70;55.56;102107.59;5028389;28;20029;-67
2022/06/16 07:13:04;;;;;;;8.30;4.93;;;;;;;16.76;54.28;102112.19;5026586;28;20049;-67
2022/06/16 07:15:30;;;;;;;9.23;4.57;;;;;;;16.85;58.20;102119.06;5022731;28;20083;-67
2022/06/16 07:17:56;;;;;;;10.95;5.15;;;;;;;17.05;54.67;102127.03;5027053;28;20390;-67
2022/06/16 07:20:21;;;;;;;11.88;5.30;;;;;;;17.01;56.31;102118.34;5023480;28;20032;-67
2022/06/16 07:22:46;;;;;;;11.77;5.78;;;;;;;17.06;55.63;102124.00;5026774;28;20100;-67
2022/06/16 07:25:13;;;;;;;10.68;5.90;;;;;;;17.11;56.28;102129.66;5025942;28;20143;-67
2022/06/16 07:27:39;;;;;;;10.70;4.97;;;;;;;17.18;55.49;102137.03;5024811;28;20024;-67
2022/06/16 07:30:13;;;;;;;10.35;6.05;;;;;;;17.24;55.35;102136.06;5020611;28;20037;-67
2022/06/16 07:32:38;;;;;;;11.98;6.47;;;;;;;17.34;55.83;102142.69;5020456;28;20029;-67
2022/06/16 07:35:04;;;;;;;11.02;4.82;;;;;;;17.49;51.90;102147.72;5024308;28;20026;-68
2022/06/16 07:37:29;;;;;;;11.48;4.72;;;;;;;17.45;52.01;102145.69;5025042;28;20025;-67
2022/06/16 07:39:54;;;;;;;9.82;4.90;;;;;;;17.59;51.33;102150.72;5023343;28;20087;-67
2022/06/16 07:42:19;;;;;;;8.35;4.05;;;;;;;17.56;50.88;102158.69;5024286;28;20075;-67
2022/06/16 07:44:45;;;;;;;8.27;4.13;;;;;;;17.66;52.45;102156.13;5023675;28;20040;-67
2022/06/16 07:47:10;;;;;;;12.65;4.57;;;;;;;17.76;55.61;102163.88;5024016;28;20025;-67
2022/06/16 07:49:35;;;;;;;9.70;4.45;;;;;;;17.83;54.25;102161.78;5015916;28;20137;-67
2022/06/16 07:52:01;;;;;;;10.27;5.57;;;;;;;17.90;53.94;102168.06;5026458;28;20026;-67
2022/06/16 07:54:28;;;;;;;9.65;6.03;;;;;;;17.96;51.83;102169.00;5021426;28;20559;-67
2022/06/16 07:56:53;;;;;;;10.23;6.10;;;;;;;18.04;54.82;102174.97;5016139;28;20461;-67
2022/06/16 07:59:18;;;;;;;9.50;5.82;;;;;;;18.10;55.70;102178.72;5021212;28;20113;-67
2022/06/16 08:01:44;;;;;;;12.15;6.10;;;;;;;18.10;54.05;102168.44;5020857;28;20509;-67
2022/06/16 08:04:09;;;;;;;9.20;5.10;;;;;;;18.12;50.64;102174.59;5020118;28;20075;-66
2022/06/16 08:06:36;;;;;;;8.77;3.78;;;;;;;18.30;52.99;102178.28;5023781;28;20040;-68
2022/06/16 08:09:07;;;;;;;11.43;4.30;;;;;;;18.34;51.25;102180.28;5019312;28;20021;-67
2022/06/16 08:14:17;;;;;;;7.93;4.50;;;;;;;18.56;51.66;102180.41;5024158;28;20052;-67
2022/06/16 08:16:43;;;;;;;10.25;5.22;;;;;;;18.63;54.22;102188.56;5021073;28;20033;-67
2022/06/16 08:19:08;;;;;;;9.25;4.55;;;;;;;18.66;51.73;102186.16;5017744;28;20025;-67
2022/06/16 08:21:33;;;;;;;9.35;4.70;;;;;;;18.80;55.63;102178.31;5024860;28;20367;-67
2022/06/16 08:23:59;;;;;;;9.60;4.97;;;;;;;18.87;55.13;102176.22;5022197;28;20026;-67
2022/06/16 08:26:24;;;;;;;10.82;4.47;;;;;;;18.88;50.05;102179.84;5023237;28;20120;-67
2022/06/16 08:28:53;;;;;;;11.45;5.10;;;;;;;18.87;49.99;102184.56;5022932;28;20105;-67
2022/06/16 08:31:20;;;;;;;10.02;4.85;;;;;;;18.84;48.71;102184.22;5024093;28;20069;-67
2022/06/16 08:33:47;;;;;;;9.10;5.00;;;;;;;18.97;54.65;102189.47;5024050;28;20040;-67
2022/06/16 08:36:12;;;;;;;9.77;4.47;;;;;;;19.02;51.34;102192.31;5025298;28;20025;-67
2022/06/16 08:38:38;;;;;;;11.30;4.00;;;;;;;19.17;49.31;102183.38;5023145;28;20544;-69
2022/06/16 08:41:15;;;;;;;7.72;4.40;;;;;;;19.28;50.53;102178.78;5025029;28;20038;-68
2022/06/16 08:44:03;;;;;;;10.95;4.88;;;;;;;19.32;51.75;102164.09;5023692;28;20612;-68
2022/06/16 08:46:34;;;;;;;10.77;4.35;;;;;;;19.40;48.83;102162.78;5027769;28;20545;-68
2022/06/16 08:49:17;;;;;;;10.20;3.92;;;;;;;19.47;50.77;102160.66;5022500;28;20038;-68
2022/06/16 08:51:58;;;;;;;10.48;4.03;;;;;;;19.58;50.56;102165.25;5014701;28;20502;-68
2022/06/16 08:54:46;;;;;;;7.25;3.60;;;;;;;19.77;51.68;102168.59;5018881;28;20051;-68
2022/06/16 08:57:18;;;;;;;8.07;3.90;;;;;;;20.03;48.31;102174.47;5021770;28;20037;-68
2022/06/16 08:59:51;;;;;;;11.73;4.45;;;;;;;20.05;47.07;102184.25;5020320;28;20037;-68
2022/06/16 09:02:25;;;;;;;10.57;4.75;;;;;;;19.98;48.58;102192.00;5020544;28;20075;-68
2022/06/16 09:05:06;;;;;;;10.55;4.60;;;;;;;20.00;46.79;102194.50;5025083;28;20478;-67
2022/06/16 09:08:04;;;;;;;10.18;5.10;;;;;;;20.23;46.12;102199.81;5022767;28;20056;-68
2022/06/16 09:10:38;;;;;;;6.63;4.20;;;;;;;20.43;47.74;102201.97;5021689;28;20064;-68
2022/06/16 09:13:22;;;;;;;9.02;4.15;;;;;;;20.58;47.26;102196.56;5023781;28;20498;-68
2022/06/16 09:16:22;;;;;;;9.15;4.57;;;;;;;20.61;47.36;102206.34;5022957;28;20025;-68
2022/06/16 09:19:06;;;;;;;9.27;4.43;;;;;;;20.69;47.32;102212.28;5016102;28;20028;-68
2022/06/16 09:21:52;;;;;;;9.60;4.13;;;;;;;20.86;47.04;102219.69;5020142;28;22159;-68
2022/06/16 09:24:32;;;;;;;6.37;3.67;;;;;;;21.06;47.16;102208.66;5019924;28;20115;-68
2022/06/16 09:27:01;;;;;;;12.30;4.30;;;;;;;21.49;48.77;102215.13;5020604;28;20101;-68
2022/06/16 09:29:35;;;;;;;8.07;3.63;;;;;;;21.73;47.54;102221.97;5023330;28;20041;-68
2022/06/16 09:32:22;;;;;;;9.52;4.15;;;;;;;21.90;45.26;102224.56;5021012;28;20380;-68
2022/06/16 09:35:18;;;;;;;6.13;3.80;;;;;;;22.30;42.90;102222.19;5022069;28;20087;-68
2022/06/16 09:37:59;;;;;;;9.43;4.43;;;;;;;23.30;44.69;102212.16;5005029;28;20043;-66
2022/06/16 09:40:41;;;;;;;8.60;4.25;;;;;;;24.47;42.54;102222.09;5024314;28;20044;-66
2022/06/16 09:43:13;;;;;;;7.60;4.15;;;;;;;27.01;40.23;102214.56;5020650;28;20034;-66
2022/06/16 09:45:54;;;;;;;10.73;4.30;;;;;;;28.53;30.75;102214.59;5015628;28;20034;-66
2022/06/16 09:48:25;;;;;;;8.38;3.83;;;;;;;30.03;29.00;102216.78;5022821;28;20144;-66
2022/06/16 09:51:01;;;;;;;7.32;3.60;;;;;;;31.46;29.39;102219.41;5010424;28;20033;-66
2022/06/16 09:53:35;;;;;;;7.32;3.60;;;;;;;32.61;28.38;102218.41;5021668;28;20033;-66
2022/06/16 09:56:11;;;;;;;6.97;3.70;;;;;;;32.32;25.01;102222.94;5022543;28;20040;-66
2022/06/16 09:58:45;;;;;;;9.23;3.63;;;;;;;32.66;25.62;102218.19;5024162;28;20478;-66
2022/06/16 10:01:15;;;;;;;8.07;3.75;;;;;;;33.20;25.38;102219.00;5024013;28;20220;-66
2022/06/16 10:04:01;;;;;;;9.35;4.25;;;;;;;33.49;22.62;102220.03;5024372;28;20487;-66
2022/06/16 10:06:35;;;;;;;6.53;3.42;;;;;;;34.32;22.76;102221.56;5022032;28;20069;-65
2022/06/16 10:09:08;;;;;;;7.28;3.50;;;;;;;34.98;21.45;102223.97;5010285;28;20034;-65
2022/06/16 10:11:55;;;;;;;7.32;3.40;;;;;;;34.79;23.78;102220.94;5020310;28;20017;-65
2022/06/16 10:14:30;;;;;;;8.60;3.17;;;;;;;35.35;26.07;102232.31;5020060;28;20129;-65
2022/06/16 10:16:59;;;;;;;7.63;3.40;;;;;;;34.99;24.12;102219.09;5022863;28;20022;-65
2022/06/16 10:19:27;;;;;;;7.03;3.53;;;;;;;35.52;26.64;102216.84;5031362;28;20572;-65
2022/06/16 10:21:53;;;;;;;7.80;3.85;;;;;;;35.30;21.64;102218.28;5026727;28;20025;-65
2022/06/16 10:24:23;;;;;;;8.27;4.13;;;;;;;34.32;22.00;102213.81;5031089;28;20029;-66
2022/06/16 10:26:48;;;;;;;12.50;4.50;;;;;;;33.16;24.74;102206.66;5019202;28;20045;-65
2022/06/16 10:29:25;;;;;;;11.25;4.75;;;;;;;33.49;24.90;102211.47;5022827;28;20382;-65
2022/06/16 10:31:55;;;;;;;9.23;3.88;;;;;;;33.60;24.82;102214.69;5025735;28;20033;-65
2022/06/16 10:34:28;;;;;;;7.15;4.30;;;;;;;33.25;25.22;102209.38;5023709;28;20088;-65
2022/06/16 10:37:04;;;;;;;10.93;4.53;;;;;;;32.84;27.31;102211.13;5026595;28;20029;-65
2022/06/16 10:39:43;;;;;;;8.60;3.85;;;;;;;32.19;27.73;102215.50;5025530;28;20095;-65
2022/06/16 10:42:43;;;;;;;10.13;4.72;;;;;;;30.57;28.13;102221.06;5023843;28;20543;-66
2022/06/16 10:45:20;;;;;;;8.73;4.10;;;;;;;29.40;30.66;102216.88;5012751;28;20049;-66
2022/06/16 10:47:52;;;;;;;8.95;4.28;;;;;;;28.51;30.72;102225.41;5029367;28;20048;-65
2022/06/16 10:50:39;;;;;;;10.48;4.43;;;;;;;27.82;32.08;102223.50;5028223;28;20486;-66
2022/06/16 10:53:27;;;;;;;10.43;4.73;;;;;;;27.22;32.58;102234.84;5027142;28;20090;-65
2022/06/16 10:56:01;;;;;;;8.48;4.53;;;;;;;26.72;32.75;102234.53;5023477;28;20299;-66
2022/06/16 10:58:30;;;;;;;13.40;4.43;;;;;;;26.61;33.42;102230.19;5026227;28;20033;-66
2022/06/16 11:01:08;;;;;;;8.57;4.07;;;;;;;26.45;34.22;102240.00;5026708;28;20033;-66
2022/06/16 11:03:44;;;;;;;8.85;4.63;;;;;;;25.91;33.89;102233.69;5026774;28;20061;-66
2022/06/16 11:06:13;;;;;;;8.38;4.30;;;;;;;26.07;40.42;102226.72;5027104;28;20037;-66
2022/06/16 11:08:42;;;;;;;8.95;4.13;;;;;;;26.31;39.42;102223.84;5026723;28;20260;-66
2022/06/16 11:11:09;;;;;;;9.75;4.65;;;;;;;26.36;34.27;102220.13;5026092;28;20033;-66
2022/06/16 11:13:43;;;;;;;9.75;5.40;;;;;;;26.36;33.48;102220.97;5021801;28;20080;-66
2022/06/16 11:16:11;;;;;;;8.35;3.97;;;;;;;26.50;34.10;102223.03;5025085;28;20036;-66
2022/06/16 11:18:38;;;;;;;8.65;4.97;;;;;;;26.38;36.47;102224.31;5028580;28;20389;-66
2022/06/16 11:21:20;;;;;;;10.48;4.90;;;;;;;26.52;36.80;102218.78;5028717;28;20025;-66
2022/06/16 11:23:52;;;;;;;8.95;5.00;;;;;;;26.40;34.82;102226.81;5026892;28;20025;-66
2022/06/16 11:26:29;;;;;;;11.13;4.70;;;;;;;25.97;36.68;102209.97;5028862;28;20112;-65
2022/06/16 11:29:23;;;;;;;8.88;5.00;;;;;;;26.11;37.32;102210.06;5025277;28;20547;-66
2022/06/16 11:32:03;;;;;;;11.48;6.20;;;;;;;25.99;36.07;102209.66;5011886;28;20041;-65
2022/06/16 11:34:28;;;;;;;11.63;5.55;;;;;;;25.96;36.68;102208.28;5028314;28;20030;-65
2022/06/16 11:37:16;;;;;;;10.70;5.22;;;;;;;26.28;34.91;102209.53;5027596;28;20371;-66
2022/06/16 11:40:07;;;;;;;11.45;5.30;;;;;;;26.13;38.71;102216.22;5016323;28;20061;-66
2022/06/16 11:43:01;;;;;;;10.70;5.57;;;;;;;26.23;35.55;102204.81;5022031;28;20500;-66
2022/06/16 11:45:35;;;;;;;9.80;5.00;;;;;;;26.35;38.55;102207.16;5030309;28;20519;-66
2022/06/16 11:48:15;;;;;;;11.02;4.93;;;;;;;26.42;37.92;102201.16;5022598;28;20025;-66
2022/06/16 11:50:40;;;;;;;7.63;3.88;;;;;;;26.54;37.84;102198.75;5026399;28;20038;-66
2022/06/16 11:53:44;;;;;;;7.37;3.50;;;;;;;26.90;37.60;102199.81;5022944;28;20123;-66
2022/06/16 11:56:28;;;;;;;6.25;3.65;;;;;;;26.61;34.46;102194.41;4965263;28;20046;-66